createdAt,value
2018-08-12T00:00:16.901Z,14.44
2018-08-12T00:02:44.707Z,14.20
2018-08-12T00:05:12.292Z,14.27
2018-08-12T00:07:39.841Z,14.25
2018-08-12T00:10:07.974Z,14.25
2018-08-12T00:12:35.537Z,14.27
2018-08-12T00:15:03.147Z,14.47
2018-08-12T00:17:30.697Z,14.17
2018-08-12T00:19:58.231Z,14.03
2018-08-12T00:22:25.899Z,14.18
2018-08-12T00:24:53.512Z,13.98
2018-08-12T00:27:21.095Z,14.21
2018-08-12T00:29:48.995Z,13.97
2018-08-12T00:32:16.528Z,13.86
2018-08-12T00:34:44.071Z,13.69
2018-08-12T00:37:11.614Z,13.83
2018-08-12T00:39:39.142Z,13.86
2018-08-12T00:42:06.727Z,13.85
2018-08-12T00:44:34.319Z,13.82
2018-08-12T00:47:01.867Z,13.86
2018-08-12T00:49:29.454Z,13.80
2018-08-12T00:51:57.006Z,13.64
2018-08-12T00:54:24.895Z,13.57
2018-08-12T00:56:52.495Z,13.55
2018-08-12T00:59:19.995Z,13.58
2018-08-12T01:01:47.575Z,13.60
2018-08-12T01:04:15.159Z,13.57
2018-08-12T01:06:43.439Z,13.59
2018-08-12T01:09:12.543Z,13.54
2018-08-12T01:11:41.427Z,13.50
2018-08-12T01:14:09.042Z,13.61
2018-08-12T01:16:36.615Z,13.63
2018-08-12T01:19:04.335Z,13.60
2018-08-12T01:21:31.849Z,13.59
2018-08-12T01:23:59.417Z,13.56
2018-08-12T01:26:26.998Z,13.54
2018-08-12T01:28:54.553Z,13.50
2018-08-12T01:31:22.192Z,13.50
2018-08-12T01:33:49.755Z,13.46
2018-08-12T01:36:17.315Z,13.30
2018-08-12T01:38:44.873Z,13.36
2018-08-12T01:41:12.402Z,13.40
2018-08-12T01:43:39.938Z,13.25
2018-08-12T01:46:07.490Z,13.34
2018-08-12T01:48:35.052Z,13.28
2018-08-12T01:51:02.598Z,13.36
2018-08-12T01:53:30.485Z,13.30
2018-08-12T01:55:58.077Z,13.27
2018-08-12T01:58:25.638Z,13.37
2018-08-12T02:00:53.203Z,13.32
2018-08-12T02:03:20.763Z,13.23
2018-08-12T02:05:48.313Z,13.17
2018-08-12T02:08:16.121Z,13.38
2018-08-12T02:10:43.660Z,13.33
2018-08-12T02:13:11.190Z,13.33
2018-08-12T02:15:38.747Z,13.40
2018-08-12T02:18:06.289Z,13.31
2018-08-12T02:20:33.802Z,13.03
2018-08-12T02:23:01.399Z,13.17
2018-08-12T02:25:28.967Z,13.06
2018-08-12T02:27:56.512Z,13.00
2018-08-12T02:30:24.043Z,12.79
2018-08-12T02:32:52.151Z,12.72
2018-08-12T02:35:19.791Z,12.82
2018-08-12T02:37:47.325Z,12.83
2018-08-12T02:40:14.871Z,12.82
2018-08-12T02:42:42.391Z,12.57
2018-08-12T02:45:12.093Z,12.56
2018-08-12T02:47:39.623Z,12.56
2018-08-12T02:50:07.165Z,12.72
2018-08-12T02:52:35.381Z,12.67
2018-08-12T02:55:02.978Z,12.70
2018-08-12T02:57:30.531Z,12.58
2018-08-12T02:59:58.098Z,12.73
2018-08-12T03:02:25.645Z,12.84
2018-08-12T03:04:53.173Z,12.77
2018-08-12T03:07:20.723Z,12.69
2018-08-12T03:09:48.251Z,12.58
2018-08-12T03:12:15.838Z,12.57
2018-08-12T03:14:43.417Z,12.56
2018-08-12T03:17:10.995Z,12.53
2018-08-12T03:19:38.528Z,12.57
2018-08-12T03:22:06.089Z,12.56
2018-08-12T03:24:33.626Z,12.51
2018-08-12T03:27:01.154Z,12.43
2018-08-12T03:29:28.707Z,12.42
2018-08-12T03:31:56.227Z,12.51
2018-08-12T03:34:23.755Z,12.45
2018-08-12T03:36:51.671Z,12.44
2018-08-12T03:39:19.187Z,12.44
2018-08-12T03:41:46.741Z,12.34
2018-08-12T03:44:14.277Z,12.31
2018-08-12T03:46:41.810Z,12.29
2018-08-12T03:49:09.355Z,12.27
2018-08-12T03:51:36.922Z,12.34
2018-08-12T03:54:04.498Z,12.29
2018-08-12T03:56:32.042Z,12.35
2018-08-12T03:58:59.561Z,12.25
2018-08-12T04:01:27.086Z,12.18
2018-08-12T04:03:54.655Z,12.10
2018-08-12T04:06:22.178Z,12.12
2018-08-12T04:08:49.713Z,12.14
2018-08-12T04:11:17.590Z,12.14
2018-08-12T04:13:45.156Z,12.13
2018-08-12T04:16:12.725Z,12.11
2018-08-12T04:18:40.295Z,12.11
2018-08-12T04:21:07.867Z,12.14
2018-08-12T04:23:35.430Z,12.19
2018-08-12T04:26:03.070Z,12.13
2018-08-12T04:28:30.585Z,12.19
2018-08-12T04:30:58.138Z,12.13
2018-08-12T04:33:25.682Z,12.12
2018-08-12T04:35:53.209Z,12.23
2018-08-12T04:38:20.747Z,12.30
2018-08-12T04:40:48.334Z,12.39
2018-08-12T04:43:16.059Z,12.46
2018-08-12T04:45:43.625Z,12.59
2018-08-12T04:48:11.135Z,12.62
2018-08-12T04:50:38.670Z,12.73
2018-08-12T04:53:06.450Z,12.94
2018-08-12T04:55:34.015Z,13.05
2018-08-12T04:58:01.525Z,13.22
2018-08-12T05:00:29.062Z,13.39
2018-08-12T05:02:56.645Z,13.65
2018-08-12T05:05:24.222Z,13.92
2018-08-12T05:07:51.751Z,14.05
2018-08-12T05:10:19.454Z,14.22
2018-08-12T05:12:46.983Z,14.40
2018-08-12T05:15:14.494Z,14.39
2018-08-12T05:17:42.090Z,14.47
2018-08-12T05:20:09.822Z,14.65
2018-08-12T05:22:37.699Z,14.84
2018-08-12T05:25:05.573Z,15.01
2018-08-12T05:27:33.235Z,15.31
2018-08-12T05:30:01.119Z,15.37
2018-08-12T05:32:28.654Z,15.75
2018-08-12T05:34:56.219Z,15.87
2018-08-12T05:37:24.102Z,16.12
2018-08-12T05:39:51.656Z,16.12
2018-08-12T05:42:19.174Z,16.54
2018-08-12T05:44:46.798Z,16.74
2018-08-12T05:47:14.510Z,16.88
2018-08-12T05:49:42.082Z,17.05
2018-08-12T05:52:09.878Z,17.26
2018-08-12T05:54:37.422Z,17.59
2018-08-12T05:57:05.014Z,17.76
2018-08-12T05:59:32.597Z,18.02
2018-08-12T06:02:00.149Z,18.40
2018-08-12T06:04:28.070Z,18.65
2018-08-12T06:06:55.593Z,19.13
2018-08-12T06:09:23.131Z,19.29
2018-08-12T06:11:50.720Z,19.40
2018-08-12T06:14:18.261Z,19.68
2018-08-12T06:16:45.820Z,19.94
2018-08-12T06:19:13.382Z,19.94
2018-08-12T06:21:40.911Z,20.18
2018-08-12T06:24:08.439Z,20.26
2018-08-12T06:26:36.006Z,20.50
2018-08-12T06:29:03.574Z,20.60
2018-08-12T06:31:31.225Z,20.77
2018-08-12T06:33:58.694Z,20.86
2018-08-12T06:36:26.307Z,21.00
2018-08-12T06:38:53.878Z,21.16
2018-08-12T06:41:21.417Z,21.44
2018-08-12T06:43:48.953Z,21.76
2018-08-12T06:46:16.501Z,22.08
2018-08-12T06:48:44.133Z,22.13
2018-08-12T06:51:11.807Z,22.30
2018-08-12T06:53:39.382Z,22.43
2018-08-12T06:56:07.329Z,22.73
2018-08-12T06:58:34.913Z,22.90
2018-08-12T07:01:02.508Z,23.36
2018-08-12T07:03:30.058Z,23.63
2018-08-12T07:05:57.642Z,24.02
2018-08-12T07:08:25.223Z,24.40
2018-08-12T07:10:52.778Z,25.38
2018-08-12T07:13:20.370Z,25.80
2018-08-12T07:15:47.918Z,26.40
2018-08-12T07:18:15.447Z,26.80
2018-08-12T07:20:43.017Z,27.20
2018-08-12T07:23:10.555Z,27.66
2018-08-12T07:25:38.061Z,28.10
2018-08-12T07:28:05.626Z,28.61
2018-08-12T07:30:33.178Z,28.46
2018-08-12T07:33:00.791Z,28.21
2018-08-12T07:35:28.378Z,27.85
2018-08-12T07:37:55.965Z,28.20
2018-08-12T07:40:23.534Z,28.16
2018-08-12T07:42:51.207Z,29.21
2018-08-12T07:45:18.848Z,28.59
2018-08-12T07:47:46.401Z,29.53
2018-08-12T07:50:13.962Z,29.56
2018-08-12T07:52:42.922Z,30.39
2018-08-12T07:55:11.454Z,30.79
2018-08-12T07:57:39.242Z,31.26
2018-08-12T08:00:08.273Z,31.86
2018-08-12T08:02:35.806Z,32.26
2018-08-12T08:05:03.928Z,32.68
2018-08-12T08:07:31.504Z,33.16
2018-08-12T08:09:59.071Z,33.30
2018-08-12T08:12:26.672Z,33.53
2018-08-12T08:14:54.214Z,33.29
2018-08-12T08:17:21.989Z,33.95
2018-08-12T08:19:49.582Z,32.97
2018-08-12T08:22:17.114Z,32.56
2018-08-12T08:24:45.303Z,33.09
2018-08-12T08:27:12.839Z,33.24
2018-08-12T08:29:40.454Z,32.70
2018-08-12T08:32:08.155Z,33.59
2018-08-12T08:34:35.670Z,34.24
2018-08-12T08:37:03.277Z,34.31
2018-08-12T08:39:30.882Z,35.68
2018-08-12T08:41:58.482Z,35.67
2018-08-12T08:44:26.026Z,35.33
2018-08-12T08:46:53.630Z,35.64
2018-08-12T08:49:21.187Z,35.93
2018-08-12T08:51:48.735Z,36.82
2018-08-12T08:54:16.605Z,37.28
2018-08-12T08:56:44.705Z,37.15
2018-08-12T08:59:12.955Z,36.66
2018-08-12T09:01:40.777Z,36.56
2018-08-12T09:04:08.373Z,36.20
2018-08-12T09:06:35.930Z,36.40
2018-08-12T09:09:06.543Z,36.89
2018-08-12T09:11:34.926Z,37.09
2018-08-12T09:14:03.397Z,36.42
2018-08-12T09:16:30.981Z,36.31
2018-08-12T09:18:58.554Z,37.07
2018-08-12T09:21:27.847Z,37.64
2018-08-12T09:23:55.424Z,36.74
2018-08-12T09:26:22.977Z,37.73
2018-08-12T09:28:50.550Z,37.80
2018-08-12T09:31:18.092Z,37.94
2018-08-12T09:33:45.615Z,37.97
2018-08-12T09:36:13.183Z,38.54
2018-08-12T09:38:40.755Z,38.32
2018-08-12T09:41:08.627Z,38.32
2018-08-12T09:43:36.135Z,38.21
2018-08-12T09:46:03.723Z,37.38
2018-08-12T09:48:31.307Z,37.98
2018-08-12T09:50:59.503Z,37.17
2018-08-12T09:53:27.061Z,37.65
2018-08-12T09:55:54.628Z,37.80
2018-08-12T09:58:22.240Z,37.67
2018-08-12T10:00:49.803Z,38.37
2018-08-12T10:03:17.328Z,37.61
2018-08-12T10:05:44.930Z,37.32
2018-08-12T10:08:12.466Z,37.38
2018-08-12T10:10:40.060Z,37.14
2018-08-12T10:13:07.730Z,37.42
2018-08-12T10:15:35.421Z,36.91
2018-08-12T10:18:04.082Z,37.81
2018-08-12T10:20:31.713Z,37.11
2018-08-12T10:23:00.166Z,37.30
2018-08-12T10:25:27.733Z,36.83
2018-08-12T10:27:55.265Z,37.26
2018-08-12T10:30:22.814Z,37.92
2018-08-12T10:32:51.124Z,36.95
2018-08-12T10:35:18.742Z,37.73
2018-08-12T10:37:46.415Z,37.63
2018-08-12T10:40:15.251Z,37.88
2018-08-12T10:42:43.338Z,38.37
2018-08-12T10:45:11.695Z,37.92
2018-08-12T10:47:40.078Z,37.70
2018-08-12T10:50:09.977Z,36.81
2018-08-12T10:52:37.948Z,36.66
2018-08-12T10:55:06.010Z,36.79
2018-08-12T10:57:33.810Z,36.48
2018-08-12T11:00:01.629Z,36.79
2018-08-12T11:02:29.281Z,37.14
2018-08-12T11:04:56.944Z,37.13
2018-08-12T11:07:24.635Z,36.35
2018-08-12T11:09:52.278Z,36.40
2018-08-12T11:12:19.909Z,36.35
2018-08-12T11:14:47.443Z,35.69
2018-08-12T11:17:15.054Z,34.49
2018-08-12T11:19:42.661Z,33.37
2018-08-12T11:22:10.208Z,33.81
2018-08-12T11:24:37.807Z,33.34
2018-08-12T11:27:05.522Z,33.48
2018-08-12T11:29:33.104Z,33.55
2018-08-12T11:32:00.718Z,32.92
2018-08-12T11:34:28.258Z,32.52
2018-08-12T11:36:55.817Z,32.25
2018-08-12T11:39:23.398Z,31.98
2018-08-12T11:41:50.971Z,31.30
2018-08-12T11:44:18.515Z,31.31
2018-08-12T11:46:46.072Z,31.51
2018-08-12T11:49:13.642Z,31.07
2018-08-12T11:51:42.282Z,31.25
2018-08-12T11:54:09.808Z,31.12
2018-08-12T11:56:37.359Z,31.28
2018-08-12T11:59:04.939Z,30.44
2018-08-12T12:01:32.507Z,31.15
2018-08-12T12:04:00.110Z,30.96
2018-08-12T12:06:27.630Z,30.32
2018-08-12T12:08:56.174Z,30.32
2018-08-12T12:11:23.805Z,30.24
2018-08-12T12:13:51.354Z,29.88
2018-08-12T12:16:18.903Z,29.85
2018-08-12T12:18:46.447Z,29.95
2018-08-12T12:21:14.030Z,30.17
2018-08-12T12:23:41.751Z,30.31
2018-08-12T12:26:09.337Z,30.53
2018-08-12T12:28:36.857Z,30.49
2018-08-12T12:31:04.490Z,29.91
2018-08-12T12:33:32.737Z,29.98
2018-08-12T12:36:00.325Z,30.21
2018-08-12T12:38:27.873Z,30.42
2018-08-12T12:40:55.450Z,30.39
2018-08-12T12:43:23.090Z,30.48
2018-08-12T12:45:50.668Z,30.32
2018-08-12T12:48:18.577Z,30.16
2018-08-12T12:50:46.179Z,30.03
2018-08-12T12:53:13.766Z,30.04
2018-08-12T12:55:41.314Z,29.97
2018-08-12T12:58:08.914Z,30.00
2018-08-12T13:00:36.782Z,29.98
2018-08-12T13:03:04.413Z,29.81
2018-08-12T13:05:32.008Z,29.73
2018-08-12T13:07:59.591Z,29.82
2018-08-12T13:10:27.145Z,29.98
2018-08-12T13:12:54.766Z,29.92
2018-08-12T13:15:22.354Z,29.74
2018-08-12T13:17:49.947Z,29.61
2018-08-12T13:20:18.700Z,29.40
2018-08-12T13:22:47.164Z,29.53
2018-08-12T13:25:16.272Z,29.54
2018-08-12T13:27:44.222Z,29.59
2018-08-12T13:30:12.793Z,29.41
2018-08-12T13:32:41.396Z,29.47
2018-08-12T13:35:08.987Z,29.54
2018-08-12T13:37:36.893Z,29.48
2018-08-12T13:40:05.209Z,29.43
2018-08-12T13:42:32.796Z,29.33
2018-08-12T13:45:00.361Z,29.27
2018-08-12T13:47:27.999Z,29.26
2018-08-12T13:49:55.580Z,29.30
2018-08-12T13:52:23.122Z,29.38
2018-08-12T13:54:50.813Z,29.26
2018-08-12T13:57:18.422Z,29.10
2018-08-12T13:59:46.138Z,29.03
2018-08-12T14:02:13.711Z,29.11
2018-08-12T14:04:41.245Z,29.06
2018-08-12T14:07:09.146Z,29.26
2018-08-12T14:09:36.678Z,29.34
2018-08-12T14:12:04.255Z,29.23
2018-08-12T14:14:31.836Z,29.17
2018-08-12T14:16:59.434Z,29.24
2018-08-12T14:19:26.992Z,29.22
2018-08-12T14:21:54.539Z,29.16
2018-08-12T14:24:22.067Z,29.07
2018-08-12T14:26:49.903Z,29.11
2018-08-12T14:29:17.527Z,29.05
2018-08-12T14:31:45.205Z,29.14
2018-08-12T14:34:12.798Z,29.14
2018-08-12T14:36:40.346Z,29.15
2018-08-12T14:39:08.236Z,29.17
2018-08-12T14:41:35.857Z,29.17
2018-08-12T14:44:03.524Z,29.16
2018-08-12T14:46:31.113Z,29.24
2018-08-12T14:48:58.684Z,29.34
2018-08-12T14:51:26.239Z,29.25
2018-08-12T14:53:53.797Z,29.18
2018-08-12T14:56:21.347Z,29.21
2018-08-12T14:58:48.981Z,29.14
2018-08-12T15:01:16.571Z,29.18
2018-08-12T15:03:44.117Z,29.14
2018-08-12T15:06:12.298Z,29.21
2018-08-12T15:08:39.825Z,29.21
2018-08-12T15:11:07.470Z,29.24
2018-08-12T15:13:35.942Z,29.11
2018-08-12T15:16:03.510Z,29.07
2018-08-12T15:18:31.113Z,28.97
2018-08-12T15:20:58.702Z,29.04
2018-08-12T15:23:26.675Z,28.97
2018-08-12T15:25:54.211Z,28.95
2018-08-12T15:28:21.734Z,28.77
2018-08-12T15:30:49.295Z,28.89
2018-08-12T15:33:16.866Z,28.90
2018-08-12T15:35:44.458Z,28.87
2018-08-12T15:38:12.031Z,28.85
2018-08-12T15:40:39.611Z,28.87
2018-08-12T15:43:07.162Z,28.98
2018-08-12T15:45:34.747Z,28.87
2018-08-12T15:48:02.353Z,28.88
2018-08-12T15:50:29.887Z,28.93
2018-08-12T15:52:57.413Z,28.90
2018-08-12T15:55:25.150Z,28.77
2018-08-12T15:57:52.736Z,28.71
2018-08-12T16:00:21.510Z,28.66
2018-08-12T16:02:49.170Z,28.64
2018-08-12T16:05:16.806Z,28.61
2018-08-12T16:07:45.482Z,28.57
2018-08-12T16:10:16.121Z,28.57
2018-08-12T16:12:44.081Z,28.54
2018-08-12T16:15:12.360Z,28.57
2018-08-12T16:17:40.688Z,28.46
2018-08-12T16:20:08.952Z,28.50
2018-08-12T16:22:36.998Z,28.52
2018-08-12T16:25:05.616Z,28.49
2018-08-12T16:27:33.206Z,28.30
2018-08-12T16:30:00.914Z,28.27
2018-08-12T16:32:28.453Z,28.35
2018-08-12T16:34:56.096Z,28.29
2018-08-12T16:37:23.699Z,28.32
2018-08-12T16:39:51.261Z,28.30
2018-08-12T16:42:18.794Z,28.20
2018-08-12T16:44:46.333Z,28.11
2018-08-12T16:47:13.984Z,28.16
2018-08-12T16:49:41.544Z,28.11
2018-08-12T16:52:09.122Z,28.06
2018-08-12T16:54:36.837Z,27.98
2018-08-12T16:57:04.650Z,28.07
2018-08-12T16:59:32.223Z,27.96
2018-08-12T17:01:59.792Z,27.94
2018-08-12T17:04:27.533Z,28.04
2018-08-12T17:06:55.103Z,27.95
2018-08-12T17:09:22.572Z,27.83
2018-08-12T17:11:50.202Z,27.73
2018-08-12T17:14:17.774Z,27.82
2018-08-12T17:16:45.310Z,27.78
2018-08-12T17:19:13.213Z,27.63
2018-08-12T17:21:40.810Z,27.65
2018-08-12T17:24:08.914Z,27.71
2018-08-12T17:26:36.529Z,27.58
2018-08-12T17:29:04.215Z,27.54
2018-08-12T17:31:31.781Z,27.44
2018-08-12T17:33:59.381Z,27.43
2018-08-12T17:36:27.536Z,27.32
2018-08-12T17:38:55.143Z,27.26
2018-08-12T17:41:22.736Z,27.24
2018-08-12T17:43:50.637Z,27.14
2018-08-12T17:46:18.206Z,27.11
2018-08-12T17:48:45.805Z,27.03
2018-08-12T17:51:13.373Z,27.01
2018-08-12T17:53:40.925Z,26.94
2018-08-12T17:56:08.549Z,27.02
2018-08-12T17:58:36.112Z,26.90
2018-08-12T18:01:03.693Z,26.81
2018-08-12T18:03:31.581Z,26.78
2018-08-12T18:05:59.131Z,26.68
2018-08-12T18:08:26.721Z,26.66
2018-08-12T18:10:54.488Z,26.63
2018-08-12T18:13:22.978Z,26.61
2018-08-12T18:15:50.558Z,26.60
2018-08-12T18:18:18.121Z,26.69
2018-08-12T18:20:45.681Z,26.51
2018-08-12T18:23:13.291Z,26.44
2018-08-12T18:25:40.901Z,26.38
2018-08-12T18:28:08.742Z,26.31
2018-08-12T18:30:36.319Z,26.56
2018-08-12T18:33:03.944Z,26.59
2018-08-12T18:35:31.506Z,26.57
2018-08-12T18:37:59.065Z,26.36
2018-08-12T18:40:26.652Z,26.15
2018-08-12T18:42:54.236Z,26.07
2018-08-12T18:45:21.841Z,25.84
2018-08-12T18:47:49.413Z,25.73
2018-08-12T18:50:17.023Z,25.60
2018-08-12T18:52:44.612Z,25.86
2018-08-12T18:55:12.795Z,25.60
2018-08-12T18:57:40.366Z,25.49
2018-08-12T19:00:08.858Z,25.15
2018-08-12T19:02:36.738Z,25.13
2018-08-12T19:05:04.600Z,24.86
2018-08-12T19:07:32.148Z,24.77
2018-08-12T19:09:59.708Z,24.47
2018-08-12T19:12:27.306Z,24.28
2018-08-12T19:14:54.875Z,24.31
2018-08-12T19:17:22.458Z,24.21
2018-08-12T19:19:50.018Z,23.96
2018-08-12T19:22:17.666Z,23.73
2018-08-12T19:24:45.262Z,23.62
2018-08-12T19:27:12.865Z,23.66
2018-08-12T19:29:40.474Z,23.49
2018-08-12T19:32:08.133Z,23.34
2018-08-12T19:34:35.844Z,23.27
2018-08-12T19:37:03.465Z,23.27
2018-08-12T19:39:31.046Z,23.13
2018-08-12T19:41:58.630Z,22.96
2018-08-12T19:44:26.285Z,22.93
2018-08-12T19:46:53.914Z,22.78
2018-08-12T19:49:21.379Z,22.66
2018-08-12T19:51:49.010Z,22.63
2018-08-12T19:54:16.547Z,22.54
2018-08-12T19:56:44.089Z,22.45
2018-08-12T19:59:11.697Z,22.36
2018-08-12T20:01:39.303Z,22.23
2018-08-12T20:04:06.899Z,22.17
2018-08-12T20:06:34.755Z,22.22
2018-08-12T20:09:02.559Z,22.14
2018-08-12T20:11:30.142Z,22.05
2018-08-12T20:13:57.959Z,21.99
2018-08-12T20:16:25.529Z,22.04
2018-08-12T20:18:53.182Z,22.00
2018-08-12T20:21:20.931Z,21.98
2018-08-12T20:23:48.480Z,21.81
2018-08-12T20:26:16.070Z,21.67
2018-08-12T20:28:43.606Z,21.58
2018-08-12T20:31:11.175Z,21.55
2018-08-12T20:33:38.722Z,21.51
2018-08-12T20:36:06.447Z,21.48
2018-08-12T20:38:33.999Z,21.40
2018-08-12T20:41:01.567Z,21.46
2018-08-12T20:43:30.755Z,21.40
2018-08-12T20:45:58.290Z,21.29
2018-08-12T20:48:25.946Z,21.17
2018-08-12T20:50:53.539Z,21.14
2018-08-12T20:53:21.110Z,21.10
2018-08-12T20:55:48.685Z,21.01
2018-08-12T20:58:16.246Z,21.11
2018-08-12T21:00:44.060Z,20.91
2018-08-12T21:03:11.603Z,20.77
2018-08-12T21:05:39.172Z,20.72
2018-08-12T21:08:06.986Z,20.70
2018-08-12T21:10:34.534Z,20.58
2018-08-12T21:13:02.082Z,20.58
2018-08-12T21:15:29.640Z,20.56
2018-08-12T21:17:57.227Z,20.56
2018-08-12T21:20:24.835Z,20.55
2018-08-12T21:22:52.397Z,20.49
2018-08-12T21:25:20.000Z,20.42
2018-08-12T21:27:47.593Z,20.44
2018-08-12T21:30:15.230Z,20.38
2018-08-12T21:32:42.827Z,20.26
2018-08-12T21:35:10.401Z,20.38
2018-08-12T21:37:37.983Z,20.43
2018-08-12T21:40:05.590Z,20.42
2018-08-12T21:42:33.157Z,20.32
2018-08-12T21:45:00.772Z,20.28
2018-08-12T21:47:28.311Z,20.14
2018-08-12T21:49:55.819Z,20.09
2018-08-12T21:52:23.431Z,20.09
2018-08-12T21:54:51.018Z,19.94
2018-08-12T21:57:18.603Z,19.95
2018-08-12T21:59:46.183Z,19.83
2018-08-12T22:02:13.770Z,19.93
2018-08-12T22:04:41.310Z,19.79
2018-08-12T22:07:08.950Z,19.86
2018-08-12T22:09:36.530Z,19.70
2018-08-12T22:12:04.216Z,19.63
2018-08-12T22:14:31.749Z,19.57
2018-08-12T22:16:59.275Z,19.55
2018-08-12T22:19:27.202Z,19.65
2018-08-12T22:21:54.738Z,19.61
2018-08-12T22:24:22.346Z,19.54
2018-08-12T22:26:49.898Z,19.50
2018-08-12T22:29:17.468Z,19.82
2018-08-12T22:31:45.070Z,19.73
2018-08-12T22:34:12.626Z,19.60
2018-08-12T22:36:40.187Z,19.48
2018-08-12T22:39:08.024Z,19.32
2018-08-12T22:41:35.565Z,19.34
2018-08-12T22:44:03.221Z,19.35
2018-08-12T22:46:30.796Z,19.43
2018-08-12T22:48:58.302Z,19.40
2018-08-12T22:51:26.027Z,19.28
2018-08-12T22:53:53.638Z,19.20
2018-08-12T22:56:21.232Z,19.14
2018-08-12T22:58:48.813Z,19.09
2018-08-12T23:01:16.426Z,19.13
2018-08-12T23:03:43.970Z,19.07
2018-08-12T23:06:11.486Z,19.13
2018-08-12T23:08:39.200Z,19.05
2018-08-12T23:11:06.782Z,19.14
2018-08-12T23:13:34.328Z,19.00
2018-08-12T23:16:07.594Z,19.02
2018-08-12T23:18:35.125Z,19.09
2018-08-12T23:21:02.722Z,19.12
2018-08-12T23:23:30.282Z,18.90
2018-08-12T23:25:57.823Z,18.74
2018-08-12T23:28:25.358Z,18.67
2018-08-12T23:30:53.227Z,18.64
2018-08-12T23:33:20.763Z,18.71
2018-08-12T23:35:48.447Z,18.69
2018-08-12T23:38:16.031Z,18.65
2018-08-12T23:40:43.642Z,18.64
2018-08-12T23:43:11.199Z,18.62
2018-08-12T23:45:39.041Z,18.70
2018-08-12T23:48:06.590Z,18.56
2018-08-12T23:50:34.103Z,18.59
2018-08-12T23:53:01.651Z,18.61
2018-08-12T23:55:29.186Z,18.62
2018-08-12T23:57:56.768Z,18.58
